Time;durP1;ratioP1;P1;durP2;ratioP2;P2;SDS_P1;SDS_P2;PMS_P1;PMS_P2;Temp;Humidity;BMP_temperature;BMP_pressure;BME280_temperature;BME280_humidity;BME280_pressure;Samples;Min_cycle;Max_cycle;Signal;HPM_P1;HPM_P2
2022/09/09 00:08:47;;;;;;;11.00;8.00;;;;;;;12.09;76.87;99077.05;431458;1271;145985;-59
2022/09/09 00:19:02;;;;;;;8.70;7.60;;;;;;;12.02;77.52;99069.13;431567;1270;146978;-58
2022/09/09 00:29:22;;;;;;;9.10;8.10;;;;;;;11.98;77.80;99064.01;431033;1270;141755;-59
2022/09/09 00:39:35;;;;;;;11.30;8.70;;;;;;;11.94;78.22;99059.77;431129;1271;141109;-59
2022/09/09 00:49:53;;;;;;;11.00;8.70;;;;;;;11.96;78.58;99053.11;431302;1270;142482;-60
2022/09/09 01:10:47;;;;;;;11.30;8.80;;;;;;;11.97;78.99;99064.06;418870;1309;601205;-59
2022/09/09 01:21:01;;;;;;;8.90;8.00;;;;;;;11.96;79.33;99069.91;427572;1283;1582173;-61
2022/09/09 01:31:12;;;;;;;11.10;8.80;;;;;;;11.99;79.56;99071.30;428071;1283;142149;-61
2022/09/09 01:41:18;;;;;;;10.00;8.30;;;;;;;12.04;79.79;99089.15;427281;1283;141802;-60
2022/09/09 01:51:24;;;;;;;10.80;9.20;;;;;;;12.09;79.87;99103.33;428300;1283;142019;-60
2022/09/09 02:01:46;;;;;;;10.80;8.60;;;;;;;12.07;80.04;99110.85;427918;1283;141832;-60
2022/09/09 02:11:59;;;;;;;13.50;10.80;;;;;;;12.13;80.34;99115.60;428261;1283;146018;-58
2022/09/09 02:22:06;;;;;;;11.90;10.40;;;;;;;12.17;80.41;99116.40;426595;1283;141992;-61
2022/09/09 02:32:15;;;;;;;13.30;11.90;;;;;;;12.24;80.48;99121.48;427672;1282;143268;-60
2022/09/09 02:42:22;;;;;;;12.20;9.40;;;;;;;12.28;80.59;99123.95;427777;1282;146581;-59
2022/09/09 02:52:33;;;;;;;13.10;10.50;;;;;;;12.31;80.66;99128.62;428239;1282;141654;-59
2022/09/09 03:02:39;;;;;;;14.20;10.80;;;;;;;12.36;80.70;99132.29;427945;1283;144319;-58
2022/09/09 03:12:45;;;;;;;14.90;10.50;;;;;;;12.39;80.74;99128.74;427200;1282;140621;-60
2022/09/09 03:22:51;;;;;;;12.90;10.70;;;;;;;12.39;80.79;99129.46;429780;1276;146573;-60
2022/09/09 03:32:57;;;;;;;12.80;10.90;;;;;;;12.43;81.04;99127.52;430678;1275;143942;-58
2022/09/09 03:43:03;;;;;;;13.20;11.20;;;;;;;12.46;81.22;99129.56;430717;1276;143887;-59
2022/09/09 03:53:08;;;;;;;11.90;10.40;;;;;;;12.53;81.38;99130.98;431036;1275;147357;-61
2022/09/09 04:03:15;;;;;;;13.80;11.50;;;;;;;12.58;81.45;99135.30;430491;1276;147371;-59
2022/09/09 04:13:21;;;;;;;16.80;14.70;;;;;;;12.66;81.63;99137.83;430829;1276;147159;-62
2022/09/09 04:23:29;;;;;;;21.50;15.80;;;;;;;12.73;81.83;99148.20;428624;1276;143552;-60
2022/09/09 04:33:34;;;;;;;29.50;17.80;;;;;;;12.78;82.14;99147.29;430933;1276;147770;-61
2022/09/09 04:43:45;;;;;;;26.70;17.90;;;;;;;12.85;82.43;99149.71;429369;1276;141890;-59
2022/09/09 04:53:51;;;;;;;31.20;18.20;;;;;;;12.97;82.94;99152.06;429189;1276;145540;-61
2022/09/09 05:03:57;;;;;;;31.70;19.60;;;;;;;13.14;83.18;99157.70;430247;1276;142384;-61
2022/09/09 05:14:03;;;;;;;25.70;17.20;;;;;;;13.33;83.62;99155.29;429291;1276;143164;-59
2022/09/09 05:24:09;;;;;;;22.00;18.40;;;;;;;13.54;83.91;99159.02;430278;1276;146857;-60
2022/09/09 05:34:15;;;;;;;21.80;16.80;;;;;;;13.80;84.20;99164.97;430588;1276;146831;-58
2022/09/09 05:44:20;;;;;;;21.00;17.20;;;;;;;14.04;84.31;99170.91;433087;1276;142268;-59
2022/09/09 05:54:26;;;;;;;20.70;17.40;;;;;;;14.31;84.26;99173.23;429246;1276;141872;-60
2022/09/09 06:04:32;;;;;;;19.30;16.80;;;;;;;14.53;84.37;99183.10;432519;1276;142246;-60
2022/09/09 06:14:37;;;;;;;21.90;18.00;;;;;;;14.72;84.39;99185.14;434784;1276;142982;-60
2022/09/09 06:24:48;;;;;;;19.80;17.30;;;;;;;15.03;84.20;99191.11;429803;1276;142692;-59
2022/09/09 06:34:54;;;;;;;19.00;16.10;;;;;;;15.27;83.84;99196.25;443927;1276;199451;-59
2022/09/09 06:45:00;;;;;;;17.60;14.90;;;;;;;15.54;83.50;99201.89;446293;1276;143336;-59
2022/09/09 06:55:06;;;;;;;18.00;16.20;;;;;;;15.94;83.09;99208.34;446345;1274;142552;-59
2022/09/09 07:05:12;;;;;;;15.70;14.10;;;;;;;16.38;82.14;99211.05;429768;1278;141965;-60
2022/09/09 07:15:19;;;;;;;15.80;14.20;;;;;;;16.64;81.12;99218.44;430362;1276;141917;-60
2022/09/09 07:25:26;;;;;;;16.80;13.80;;;;;;;16.93;80.31;99223.13;430344;1276;142714;-61
2022/09/09 07:35:32;;;;;;;14.70;13.30;;;;;;;17.44;79.44;99229.35;429341;1276;145918;-62
2022/09/09 07:45:41;;;;;;;9.10;8.40;;;;;;;19.82;78.26;99234.08;430255;1276;147793;-60
2022/09/09 07:55:47;;;;;;;10.10;8.90;;;;;;;23.13;69.56;99240.79;429712;1276;141946;-58
2022/09/09 08:05:53;;;;;;;11.70;10.50;;;;;;;21.42;67.92;99252.36;429200;1276;142285;-58
2022/09/09 08:16:06;;;;;;;10.90;9.90;;;;;;;21.50;67.69;99267.36;429936;1276;141099;-61
2022/09/09 08:26:16;;;;;;;9.40;7.50;;;;;;;24.45;64.54;99266.98;429190;1276;194664;-60
2022/09/09 08:36:25;;;;;;;7.20;6.50;;;;;;;27.03;59.44;99266.44;429895;1276;142579;-61
2022/09/09 08:46:39;;;;;;;8.60;5.80;;;;;;;27.81;54.03;99263.02;430302;1274;145954;-60
2022/09/09 08:56:45;;;;;;;6.30;5.70;;;;;;;24.89;54.91;99275.05;431828;1274;142101;-59
2022/09/09 09:07:00;;;;;;;7.60;6.90;;;;;;;24.74;55.46;99269.89;430416;1274;195129;-57
2022/09/09 09:17:13;;;;;;;13.70;5.60;;;;;;;23.88;55.44;99281.11;429276;1274;143346;-60
2022/09/09 09:27:28;;;;;;;5.70;5.10;;;;;;;22.90;56.50;99287.34;431347;1274;145417;-60
2022/09/09 09:37:36;;;;;;;8.10;6.20;;;;;;;22.46;56.97;99288.48;430893;1274;140721;-59
2022/09/09 09:47:41;;;;;;;;;;;;;;;22.12;57.64;99277.72;429246;1274;145926;-59
2022/09/09 09:57:47;;;;;;;9.70;5.50;;;;;;;22.30;57.57;99290.34;430322;1274;128603;-59
2022/09/09 10:08:06;;;;;;;4.00;3.70;;;;;;;22.23;57.74;99302.36;429084;1274;143495;-60
2022/09/09 10:18:27;;;;;;;4.40;4.00;;;;;;;22.62;57.02;99313.87;430266;1274;144272;-60
2022/09/09 10:28:47;;;;;;;4.90;4.50;;;;;;;22.81;55.93;99315.67;432351;1273;144725;-60
2022/09/09 10:38:58;;;;;;;5.80;4.00;;;;;;;22.56;55.35;99326.50;429962;1273;145803;-60
2022/09/09 10:49:16;;;;;;;6.50;4.80;;;;;;;22.49;55.23;99335.33;430267;1274;148141;-61
2022/09/09 10:59:30;;;;;;;6.20;4.00;;;;;;;22.19;54.86;99332.73;429734;1274;141690;-61
2022/09/09 11:09:42;;;;;;;4.20;3.90;;;;;;;22.21;54.94;99342.95;431292;1274;139948;-58
2022/09/09 11:19:48;;;;;;;4.70;4.30;;;;;;;22.57;54.38;99348.34;429978;1276;141324;-61
2022/09/09 11:30:16;;;;;;;4.60;4.00;;;;;;;22.54;54.06;99345.63;430091;1274;141529;-59
2022/09/09 11:40:43;;;;;;;3.70;3.10;;;;;;;22.53;53.72;99333.30;429663;1274;141794;-60
2022/09/09 11:51:00;;;;;;;3.50;3.00;;;;;;;22.20;53.93;99327.73;446248;1272;141144;-59
2022/09/09 12:01:15;;;;;;;3.10;2.60;;;;;;;22.25;54.00;99319.50;446956;1273;140822;-60
2022/09/09 12:11:28;;;;;;;3.40;2.80;;;;;;;22.12;53.85;99307.91;446224;1273;140931;-59
2022/09/09 12:21:42;;;;;;;4.40;3.00;;;;;;;22.21;53.73;99294.20;447080;1273;141598;-60
2022/09/09 12:31:57;;;;;;;2.90;2.00;;;;;;;21.88;53.59;99302.36;445304;1273;141516;-60
2022/09/09 12:42:04;;;;;;;5.30;2.50;;;;;;;22.03;54.24;99311.09;443044;1273;141460;-60
2022/09/09 12:52:15;;;;;;;4.70;3.00;;;;;;;22.69;53.80;99318.64;446907;1273;141049;-60
2022/09/09 13:02:24;;;;;;;2.20;2.00;;;;;;;23.12;52.67;99321.16;446330;1273;142330;-60
2022/09/09 13:12:29;;;;;;;3.40;2.40;;;;;;;23.52;51.74;99310.05;447125;1272;141665;-59
2022/09/09 13:22:38;;;;;;;3.10;2.60;;;;;;;23.61;51.04;99310.27;445850;1273;1594713;-60
2022/09/09 13:32:44;;;;;;;2.80;1.90;;;;;;;23.26;50.72;99304.06;444310;1273;142817;-60
2022/09/09 13:42:56;;;;;;;2.30;2.10;;;;;;;22.86;51.32;99303.91;443571;1273;141877;-60
2022/09/09 13:53:01;;;;;;;4.30;2.00;;;;;;;22.87;51.89;99303.05;446338;1273;141439;-60
2022/09/09 14:03:07;;;;;;;4.00;2.00;;;;;;;22.74;51.64;99300.21;447070;1272;141713;-62
2022/09/09 14:13:13;;;;;;;2.30;2.10;;;;;;;22.83;51.34;99293.04;442124;1274;140527;-60
2022/09/09 14:23:21;;;;;;;4.30;1.80;;;;;;;22.75;51.32;99294.79;428601;1273;146373;-61
2022/09/09 14:33:28;;;;;;;2.20;1.70;;;;;;;22.83;51.26;99299.92;435997;1273;144593;-59
2022/09/09 14:43:34;;;;;;;4.80;1.70;;;;;;;22.86;50.96;99293.50;430049;1273;141272;-60
2022/09/09 14:53:40;;;;;;;1.60;1.40;;;;;;;23.02;50.70;99295.37;429251;1273;141534;-58
2022/09/09 15:03:52;;;;;;;2.70;1.60;;;;;;;23.14;50.07;99281.63;431136;1273;145140;-60
2022/09/09 15:13:58;;;;;;;1.80;1.20;;;;;;;23.24;49.86;99283.27;430146;1273;140356;-59
2022/09/09 15:24:05;;;;;;;3.10;1.30;;;;;;;23.29;49.84;99285.70;430492;1273;140643;-59
2022/09/09 15:34:11;;;;;;;1.40;1.30;;;;;;;23.34;49.72;99285.05;431009;1273;140263;-58
2022/09/09 15:44:18;;;;;;;3.10;1.40;;;;;;;23.07;49.85;99279.79;429132;1273;146622;-61
2022/09/09 15:54:26;;;;;;;4.90;2.30;;;;;;;22.53;50.47;99280.51;431509;1273;140446;-60
2022/09/09 16:04:33;;;;;;;2.50;2.40;;;;;;;21.86;51.96;99281.12;430803;1273;140353;-59
2022/09/09 16:14:40;;;;;;;3.60;3.30;;;;;;;21.23;53.25;99285.75;431743;1273;147116;-60
2022/09/09 16:24:46;;;;;;;5.80;3.60;;;;;;;20.62;54.69;99293.16;430645;1273;146117;-59
2022/09/09 16:34:52;;;;;;;5.30;4.40;;;;;;;20.22;55.87;99291.98;429364;1273;141148;-60
2022/09/09 16:44:58;;;;;;;6.30;5.70;;;;;;;19.95;56.89;99293.09;429599;1273;197693;-59
2022/09/09 16:55:04;;;;;;;6.70;4.90;;;;;;;19.72;57.97;99290.43;430035;1271;146011;-60
2022/09/09 17:05:11;;;;;;;5.50;5.00;;;;;;;19.33;59.47;99293.43;429740;1273;142377;-59
2022/09/09 17:15:17;;;;;;;6.40;5.80;;;;;;;18.93;61.20;99309.08;429561;1273;142043;-59
2022/09/09 17:25:24;;;;;;;7.10;6.40;;;;;;;18.57;62.54;99313.70;430146;1273;143609;-60
2022/09/09 17:35:30;;;;;;;6.70;6.10;;;;;;;18.22;63.93;99322.28;430139;1273;188249;-60
2022/09/09 17:45:35;;;;;;;9.50;8.10;;;;;;;17.90;65.61;99331.56;430527;1273;145553;-59
2022/09/09 17:55:41;;;;;;;11.10;9.20;;;;;;;17.57;66.90;99334.27;430173;1273;145888;-60
2022/09/09 18:05:47;;;;;;;11.20;9.40;;;;;;;17.25;68.12;99353.27;430395;1273;147828;-60
2022/09/09 18:15:53;;;;;;;15.00;11.00;;;;;;;16.97;69.43;99362.26;430571;1273;142356;-60
2022/09/09 18:25:59;;;;;;;13.70;12.20;;;;;;;16.73;70.92;99367.83;429929;1273;142320;-61
2022/09/09 18:36:09;;;;;;;15.10;13.50;;;;;;;16.50;72.10;99373.32;429940;1273;143019;-57
2022/09/09 18:46:16;;;;;;;17.00;12.20;;;;;;;16.28;73.44;99372.12;430136;1273;142789;-59
2022/09/09 18:56:23;;;;;;;17.90;14.80;;;;;;;16.08;74.17;99383.50;429668;1273;142493;-59
2022/09/09 19:06:30;;;;;;;19.30;17.30;;;;;;;15.87;75.03;99380.71;430407;1273;142280;-58
2022/09/09 19:16:38;;;;;;;18.10;16.40;;;;;;;15.67;76.11;99375.99;439985;1273;146587;-59
2022/09/09 19:26:45;;;;;;;19.60;17.60;;;;;;;15.48;76.63;99370.67;436755;1273;142753;-59
2022/09/09 19:36:52;;;;;;;17.80;15.80;;;;;;;15.32;77.49;99375.77;440031;1271;146092;-60
2022/09/09 19:46:59;;;;;;;21.40;17.70;;;;;;;15.14;78.07;99373.30;440944;1274;144518;-60
2022/09/09 19:57:06;;;;;;;19.30;16.50;;;;;;;14.99;78.69;99377.03;430230;1272;143411;-62
2022/09/09 20:07:11;;;;;;;19.80;17.60;;;;;;;14.81;79.48;99376.61;431021;1273;143306;-60
2022/09/09 20:17:17;;;;;;;22.20;19.90;;;;;;;14.64;80.37;99373.07;430695;1273;142762;-59
2022/09/09 20:27:23;;;;;;;20.80;18.70;;;;;;;14.48;80.91;99369.64;431791;1273;143640;-61
2022/09/09 20:37:30;;;;;;;22.10;19.60;;;;;;;14.35;81.47;99370.80;431308;1273;141795;-60
2022/09/09 20:47:36;;;;;;;27.00;22.20;;;;;;;14.35;82.28;99386.25;431074;1273;142840;-60
2022/09/09 20:57:42;;;;;;;23.00;20.70;;;;;;;14.40;82.78;99401.86;430067;1273;143853;-60
2022/09/09 21:07:48;;;;;;;26.30;21.90;;;;;;;14.42;82.89;99408.55;431224;1273;141963;-59
2022/09/09 21:17:54;;;;;;;25.10;22.50;;;;;;;14.45;82.80;99411.65;431333;1273;142329;-60
2022/09/09 21:27:59;;;;;;;26.50;23.70;;;;;;;14.43;82.90;99415.86;430278;1273;154594;-60
2022/09/09 21:38:06;;;;;;;29.10;23.70;;;;;;;14.34;83.03;99414.48;430899;1273;142276;-59
2022/09/09 21:48:15;;;;;;;27.30;22.90;;;;;;;14.26;83.10;99414.42;432356;1273;194547;-60
2022/09/09 21:58:20;;;;;;;26.20;23.20;;;;;;;14.17;83.46;99413.44;447046;1273;143106;-60
2022/09/09 22:08:26;;;;;;;28.50;22.60;;;;;;;14.12;83.58;99403.13;446312;1273;187464;-60
2022/09/09 22:18:33;;;;;;;29.70;22.60;;;;;;;14.11;83.82;99399.16;446983;1273;143785;-59
2022/09/09 22:28:39;;;;;;;23.50;20.60;;;;;;;14.08;84.00;99396.94;447017;1271;144667;-59
2022/09/09 22:38:45;;;;;;;26.10;21.10;;;;;;;13.95;84.11;99385.77;440124;1274;142238;-60
2022/09/09 22:48:50;;;;;;;26.50;22.30;;;;;;;13.86;84.73;99376.66;438062;1275;143066;-59
2022/09/09 22:58:57;;;;;;;29.30;22.40;;;;;;;13.87;85.00;99368.17;446360;1272;142747;-61
2022/09/09 23:09:04;;;;;;;31.60;26.80;;;;;;;13.87;85.08;99360.23;447095;1273;142244;-60
2022/09/09 23:19:14;;;;;;;33.20;26.20;;;;;;;13.86;85.28;99359.23;447077;1273;143858;-60
2022/09/09 23:29:20;;;;;;;32.70;26.50;;;;;;;13.87;85.21;99353.85;446332;1273;142238;-60
2022/09/09 23:39:26;;;;;;;32.10;26.50;;;;;;;13.84;85.36;99353.64;440112;1273;142754;-60
2022/09/09 23:49:32;;;;;;;33.00;27.40;;;;;;;13.79;85.61;99354.91;444788;1273;142653;-60
2022/09/09 23:59:38;;;;;;;33.40;26.90;;;;;;;13.75;85.82;99361.91;446261;1273;143603;-61
